Time;durP1;ratioP1;P1;durP2;ratioP2;P2;SDS_P1;SDS_P2;PMS_P1;PMS_P2;Temp;Humidity;BMP_temperature;BMP_pressure;BME280_temperature;BME280_humidity;BME280_pressure;Samples;Min_cycle;Max_cycle;Signal;HPM_P1;HPM_P2
2023/09/09 00:01:02;;;;;;;16.40;14.80;;;;;;;19.58;92.91;101533.78;5044973;28;20387;-67
2023/09/09 00:03:27;;;;;;;19.88;15.68;;;;;;;19.57;93.14;101531.31;5031622;28;20041;-66
2023/09/09 00:05:53;;;;;;;21.45;17.08;;;;;;;19.58;93.23;101536.50;5050836;28;20025;-66
2023/09/09 00:08:19;;;;;;;16.65;11.68;;;;;;;19.48;93.24;101536.91;5035392;28;20031;-66
2023/09/09 00:10:44;;;;;;;17.42;15.05;;;;;;;19.43;92.91;101525.94;5031355;28;20017;-66
2023/09/09 00:13:10;;;;;;;17.42;15.07;;;;;;;19.33;92.77;101522.03;5037128;28;20029;-66
2023/09/09 00:15:35;;;;;;;25.40;21.05;;;;;;;19.41;93.11;101529.91;5040911;28;20105;-66
2023/09/09 00:18:04;;;;;;;24.90;18.08;;;;;;;19.39;93.69;101527.41;5049211;28;20028;-66
2023/09/09 00:20:31;;;;;;;18.73;13.88;;;;;;;19.36;93.56;101519.75;5045935;28;20024;-67
2023/09/09 00:22:56;;;;;;;16.00;14.30;;;;;;;19.37;93.43;101528.63;5049706;28;20021;-67
2023/09/09 00:25:22;;;;;;;13.82;12.45;;;;;;;19.36;93.30;101527.81;5036758;28;20482;-66
2023/09/09 00:27:47;;;;;;;20.83;18.73;;;;;;;19.34;93.31;101524.50;5029061;28;20029;-66
2023/09/09 00:30:12;;;;;;;22.40;20.00;;;;;;;19.37;93.80;101534.03;5030048;28;20018;-67
2023/09/09 00:32:38;;;;;;;20.38;17.20;;;;;;;19.34;93.59;101523.69;5034352;28;20072;-66
2023/09/09 00:35:04;;;;;;;17.83;16.02;;;;;;;19.28;93.51;101525.34;5031398;28;20749;-67
2023/09/09 00:37:29;;;;;;;21.05;18.77;;;;;;;19.29;93.47;101520.81;5032103;28;20033;-66
2023/09/09 00:39:54;;;;;;;25.77;22.35;;;;;;;19.33;93.94;101520.16;5037883;28;20029;-66
2023/09/09 00:42:19;;;;;;;20.35;18.13;;;;;;;19.29;94.12;101520.81;5029187;28;20025;-67
2023/09/09 00:44:45;;;;;;;24.67;20.65;;;;;;;19.26;94.23;101515.84;5032442;28;20087;-66
2023/09/09 00:47:10;;;;;;;26.13;22.73;;;;;;;19.27;94.78;101518.31;5034546;28;20108;-66
2023/09/09 00:49:35;;;;;;;28.95;25.25;;;;;;;19.27;95.25;101525.56;5043518;28;20052;-67
2023/09/09 00:52:01;;;;;;;30.13;26.92;;;;;;;19.23;95.55;101516.25;5035685;28;20030;-66
2023/09/09 00:54:27;;;;;;;30.70;27.25;;;;;;;19.26;95.92;101519.38;5031811;28;20106;-67
2023/09/09 00:56:55;;;;;;;40.55;34.22;;;;;;;19.35;96.71;101518.09;5041350;28;20505;-67
2023/09/09 00:59:20;;;;;;;34.33;30.10;;;;;;;19.34;96.91;101518.28;5043645;28;20608;-67
2023/09/09 01:01:45;;;;;;;50.40;39.58;;;;;;;19.36;97.15;101522.44;5036537;28;20063;-67
2023/09/09 01:04:11;;;;;;;50.78;42.10;;;;;;;19.40;97.64;101525.56;5038056;28;20052;-67
2023/09/09 01:06:36;;;;;;;53.28;42.95;;;;;;;19.46;97.92;101524.69;5039490;28;20025;-67
2023/09/09 01:09:06;;;;;;;55.00;44.53;;;;;;;19.50;98.34;101528.63;5045795;28;20058;-67
2023/09/09 01:11:32;;;;;;;56.53;45.75;;;;;;;19.48;98.27;101525.31;5037400;28;20060;-67
2023/09/09 01:13:57;;;;;;;39.38;31.73;;;;;;;19.48;97.58;101522.63;5046264;28;20059;-66
2023/09/09 01:16:23;;;;;;;23.85;20.17;;;;;;;19.48;96.78;101528.00;5041283;28;20482;-66
2023/09/09 01:18:49;;;;;;;20.45;18.25;;;;;;;19.47;95.56;101527.19;5042430;28;20024;-67
2023/09/09 01:21:18;;;;;;;20.75;18.33;;;;;;;19.41;94.62;101525.34;5048608;28;20036;-67
2023/09/09 01:23:43;;;;;;;;;;;;;;;19.56;93.94;101525.09;5036822;28;20596;-66
2023/09/09 01:26:08;;;;;;;19.67;17.20;;;;;;;19.40;93.50;101529.06;5036431;28;20725;-66
2023/09/09 01:28:34;;;;;;;21.58;17.92;;;;;;;19.40;93.23;101515.59;5041946;28;20014;-66
2023/09/09 01:30:59;;;;;;;20.65;18.38;;;;;;;19.44;93.12;101506.06;5042261;28;20017;-66
2023/09/09 01:33:24;;;;;;;20.48;18.27;;;;;;;19.42;92.93;101513.53;5029905;28;20025;-67
2023/09/09 01:35:50;;;;;;;18.77;16.15;;;;;;;19.45;92.60;101517.66;5028856;28;20386;-67
2023/09/09 01:38:15;;;;;;;16.95;14.60;;;;;;;19.38;92.22;101512.31;5028233;28;20483;-66
2023/09/09 01:40:40;;;;;;;17.45;15.00;;;;;;;19.38;92.06;101516.88;5033002;28;20021;-66
2023/09/09 01:43:06;;;;;;;19.88;16.58;;;;;;;19.34;92.00;101515.59;5039903;28;20043;-66
2023/09/09 01:45:31;;;;;;;19.48;16.73;;;;;;;19.26;91.72;101513.97;5029583;28;20033;-66
2023/09/09 01:47:56;;;;;;;18.30;16.40;;;;;;;19.16;91.61;101516.28;5027389;28;20017;-67
2023/09/09 01:50:22;;;;;;;21.25;19.00;;;;;;;19.10;91.50;101511.75;5034935;28;20058;-66
2023/09/09 01:52:47;;;;;;;29.05;22.45;;;;;;;19.02;91.88;101512.78;5029614;28;20529;-66
2023/09/09 01:55:12;;;;;;;19.00;17.05;;;;;;;18.98;91.80;101511.53;5029921;28;20444;-67
2023/09/09 01:57:38;;;;;;;21.50;19.10;;;;;;;18.90;91.46;101516.31;5031735;28;20051;-66
2023/09/09 02:00:10;;;;;;;34.65;28.10;;;;;;;18.97;92.62;101514.44;5034091;28;20045;-66
2023/09/09 02:02:35;;;;;;;26.27;23.10;;;;;;;18.84;93.41;101516.13;5036846;28;20180;-66
2023/09/09 02:05:01;;;;;;;22.02;19.77;;;;;;;18.81;93.52;101513.03;5036891;28;20544;-66
2023/09/09 02:07:27;;;;;;;23.30;19.50;;;;;;;18.71;93.68;101512.59;5038298;28;20505;-67
2023/09/09 02:09:52;;;;;;;75.90;20.42;;;;;;;18.63;94.18;101516.34;5042074;28;20485;-66
2023/09/09 02:12:18;;;;;;;41.13;27.83;;;;;;;18.55;94.56;101519.22;5042390;28;20036;-67
2023/09/09 02:14:43;;;;;;;59.50;29.85;;;;;;;18.43;94.70;101507.41;5041612;28;20036;-66
2023/09/09 02:17:08;;;;;;;41.28;34.72;;;;;;;18.40;95.03;101514.00;5039668;28;20502;-67
2023/09/09 02:19:33;;;;;;;31.65;27.65;;;;;;;18.28;94.88;101518.34;5038004;28;20071;-66
2023/09/09 02:21:59;;;;;;;29.02;25.45;;;;;;;18.17;94.68;101513.56;5038142;28;20028;-66
2023/09/09 02:24:24;;;;;;;27.92;24.38;;;;;;;18.06;95.19;101514.16;5035281;28;20036;-67
2023/09/09 02:26:50;;;;;;;30.08;25.83;;;;;;;17.98;95.46;101509.81;5036330;28;20092;-66
2023/09/09 02:29:15;;;;;;;38.58;34.53;;;;;;;18.08;96.64;101512.94;5039169;28;20036;-67
2023/09/09 02:31:40;;;;;;;42.80;36.50;;;;;;;18.09;97.61;101511.06;5046944;28;20033;-67
2023/09/09 02:34:06;;;;;;;46.58;40.47;;;;;;;18.19;98.55;101517.69;5032317;28;20021;-67
2023/09/09 02:36:31;;;;;;;55.50;45.55;;;;;;;18.25;99.18;101516.09;5046343;28;20608;-67
2023/09/09 02:38:56;;;;;;;59.80;47.72;;;;;;;18.28;99.48;101512.97;5036268;28;20554;-67
2023/09/09 02:41:21;;;;;;;68.68;54.47;;;;;;;18.36;100.00;101518.16;5034262;28;20500;-67
2023/09/09 02:43:47;;;;;;;69.20;55.38;;;;;;;18.40;99.97;101514.00;5037896;28;20021;-67
2023/09/09 02:46:13;;;;;;;72.68;56.83;;;;;;;18.44;100.00;101515.25;5037313;28;20017;-69
2023/09/09 02:48:38;;;;;;;76.53;59.33;;;;;;;18.43;100.00;101518.16;5034518;28;20056;-69
2023/09/09 02:51:03;;;;;;;85.05;64.25;;;;;;;18.45;100.00;101514.22;5032005;28;20083;-69
2023/09/09 02:53:30;;;;;;;83.70;63.38;;;;;;;18.51;100.00;101523.34;5033139;28;20025;-69
2023/09/09 02:55:55;;;;;;;92.43;66.63;;;;;;;18.53;100.00;101511.34;5031443;28;20035;-69
2023/09/09 02:58:20;;;;;;;94.00;70.82;;;;;;;18.64;100.00;101518.00;5037261;28;20025;-69
2023/09/09 03:00:47;;;;;;;98.32;74.25;;;;;;;18.65;100.00;101514.28;5036411;28;20059;-67
2023/09/09 03:03:13;;;;;;;94.28;71.22;;;;;;;18.61;100.00;101512.16;5035990;28;20017;-67
2023/09/09 03:05:38;;;;;;;101.35;74.57;;;;;;;18.68;100.00;101511.16;5038563;28;20443;-67
2023/09/09 03:08:04;;;;;;;98.55;74.82;;;;;;;18.64;100.00;101514.47;5036688;28;20421;-67
2023/09/09 03:10:30;;;;;;;105.05;74.90;;;;;;;18.62;100.00;101514.69;5032024;28;20129;-67
2023/09/09 03:12:56;;;;;;;105.07;77.85;;;;;;;18.62;100.00;101517.38;5038163;28;20107;-67
2023/09/09 03:15:23;;;;;;;77.88;58.15;;;;;;;18.57;100.00;101512.59;5037663;28;20029;-67
2023/09/09 03:17:48;;;;;;;41.60;35.85;;;;;;;18.55;100.00;101511.16;5035269;28;20473;-67
2023/09/09 03:20:13;;;;;;;46.28;32.95;;;;;;;18.51;98.63;101512.59;5039321;28;20016;-67
2023/09/09 03:22:39;;;;;;;47.83;36.55;;;;;;;18.48;98.22;101510.28;5047895;28;20063;-66
2023/09/09 03:25:05;;;;;;;41.15;31.75;;;;;;;18.41;97.28;101512.16;5050769;28;20023;-66
2023/09/09 03:27:30;;;;;;;40.05;30.85;;;;;;;18.36;96.76;101517.31;5036862;28;20057;-66
2023/09/09 03:29:55;;;;;;;37.00;29.98;;;;;;;18.33;96.55;101515.88;5037358;28;20067;-67
2023/09/09 03:32:20;;;;;;;38.95;31.77;;;;;;;18.31;96.57;101517.94;5031611;28;20397;-66
2023/09/09 03:34:46;;;;;;;44.17;36.83;;;;;;;18.35;96.28;101510.28;5032958;28;20034;-66
2023/09/09 03:37:11;;;;;;;46.00;36.78;;;;;;;18.29;95.93;101511.13;5034812;28;20540;-67
2023/09/09 03:39:36;;;;;;;49.05;39.30;;;;;;;18.32;96.28;101508.00;5039990;28;20024;-67
2023/09/09 03:42:02;;;;;;;53.70;41.63;;;;;;;18.34;95.63;101506.78;5043013;28;20553;-66
2023/09/09 03:44:27;;;;;;;58.90;44.67;;;;;;;18.32;95.57;101505.31;5042608;28;20029;-66
2023/09/09 03:46:53;;;;;;;46.60;35.95;;;;;;;18.29;95.48;101508.44;5035642;28;20029;-66
2023/09/09 03:49:18;;;;;;;59.40;43.30;;;;;;;18.21;95.10;101502.22;5041768;28;20375;-67
2023/09/09 03:51:44;;;;;;;53.33;39.58;;;;;;;18.14;94.96;101511.28;5040541;28;20028;-66
2023/09/09 03:54:10;;;;;;;43.20;37.28;;;;;;;18.02;94.85;101513.75;5039736;28;20029;-66
2023/09/09 03:56:35;;;;;;;45.03;36.22;;;;;;;17.94;94.49;101516.63;5041768;28;20706;-66
2023/09/09 03:59:00;;;;;;;43.05;35.40;;;;;;;17.86;94.62;101506.03;5045322;28;20095;-66
2023/09/09 04:01:25;;;;;;;44.15;35.55;;;;;;;17.84;94.39;101513.47;5039590;28;20033;-66
2023/09/09 04:03:51;;;;;;;40.85;31.73;;;;;;;17.75;94.38;101512.84;5045681;28;20044;-67
2023/09/09 04:06:19;;;;;;;39.67;33.92;;;;;;;17.69;93.77;101521.72;5038313;28;20116;-66
2023/09/09 04:08:45;;;;;;;48.28;37.03;;;;;;;17.68;94.10;101516.53;5039452;28;20078;-66
2023/09/09 04:11:10;;;;;;;51.83;41.17;;;;;;;17.64;94.12;101524.16;5042109;28;20021;-66
2023/09/09 04:13:37;;;;;;;47.05;39.25;;;;;;;17.60;94.50;101525.53;5040892;28;20440;-66
2023/09/09 04:16:03;;;;;;;37.92;32.53;;;;;;;17.52;94.42;101523.03;5037247;28;20048;-66
2023/09/09 04:18:29;;;;;;;31.05;27.52;;;;;;;17.45;94.13;101525.69;5043110;28;20028;-66
2023/09/09 04:20:54;;;;;;;66.00;33.60;;;;;;;17.45;94.24;101523.00;5041608;28;20033;-66
2023/09/09 04:23:19;;;;;;;155.73;30.83;;;;;;;17.29;94.37;101528.69;5046895;28;20018;-66
2023/09/09 04:25:45;;;;;;;407.63;46.28;;;;;;;17.10;94.19;101532.09;5037779;28;20021;-66
2023/09/09 04:28:11;;;;;;;548.08;52.75;;;;;;;16.92;94.58;101530.72;5037577;28;20025;-66
2023/09/09 04:30:40;;;;;;;645.88;55.22;;;;;;;16.73;95.20;101532.22;5042190;28;20592;-66
2023/09/09 04:33:07;;;;;;;443.88;53.25;;;;;;;16.59;95.54;101527.75;5040227;28;20100;-66
2023/09/09 04:35:33;;;;;;;302.35;52.38;;;;;;;16.52;96.50;101528.72;5038810;28;20017;-66
2023/09/09 04:37:58;;;;;;;379.60;54.85;;;;;;;16.41;96.90;101525.53;5037352;28;20116;-66
2023/09/09 04:40:24;;;;;;;270.65;55.03;;;;;;;16.37;97.98;101526.94;5033444;28;20025;-66
2023/09/09 04:42:49;;;;;;;365.20;52.45;;;;;;;16.27;98.19;101529.13;5036364;28;20025;-66
2023/09/09 04:45:14;;;;;;;312.38;53.38;;;;;;;16.20;98.40;101533.59;5043011;28;20529;-66
2023/09/09 04:47:39;;;;;;;341.73;57.15;;;;;;;16.11;98.77;101530.19;5045456;28;20136;-66
2023/09/09 04:50:06;;;;;;;338.25;55.30;;;;;;;16.10;99.48;101533.88;5036198;28;20025;-66
2023/09/09 04:52:31;;;;;;;212.50;57.92;;;;;;;16.13;99.86;101538.03;5040896;28;20617;-65
2023/09/09 04:54:56;;;;;;;312.30;53.28;;;;;;;16.04;100.00;101545.34;5031683;28;20525;-66
2023/09/09 04:57:21;;;;;;;406.92;61.38;;;;;;;16.05;100.00;101541.66;5040730;28;20094;-66
2023/09/09 04:59:47;;;;;;;486.75;71.22;;;;;;;16.07;100.00;101542.28;5037662;28;20105;-69
2023/09/09 05:02:13;;;;;;;323.52;66.35;;;;;;;16.05;100.00;101541.66;5037488;28;20033;-69
2023/09/09 05:04:39;;;;;;;258.73;77.57;;;;;;;16.18;100.00;101542.81;5047325;28;20025;-69
2023/09/09 05:07:04;;;;;;;446.40;78.40;;;;;;;16.16;100.00;101543.00;5034855;28;20096;-69
2023/09/09 05:09:30;;;;;;;480.23;82.65;;;;;;;16.22;100.00;101547.63;5033577;28;20108;-68
2023/09/09 05:11:55;;;;;;;435.52;89.03;;;;;;;16.26;100.00;101551.56;5041693;28;20489;-68
2023/09/09 05:14:20;;;;;;;421.33;94.53;;;;;;;16.33;100.00;101546.28;5037519;28;20024;-68
2023/09/09 05:16:45;;;;;;;364.02;93.72;;;;;;;16.38;100.00;101547.34;5039915;28;20048;-68
2023/09/09 05:19:10;;;;;;;335.75;87.40;;;;;;;16.37;100.00;101551.06;5036474;28;20536;-69
2023/09/09 05:21:36;;;;;;;391.45;94.82;;;;;;;16.41;100.00;101546.16;5030125;28;20067;-69
2023/09/09 05:24:01;;;;;;;301.20;94.68;;;;;;;16.42;100.00;101542.44;5040331;28;20500;-68
2023/09/09 05:26:26;;;;;;;397.58;96.30;;;;;;;16.44;100.00;101553.81;5039857;28;20025;-68
2023/09/09 05:28:52;;;;;;;417.85;98.22;;;;;;;16.46;100.00;101553.59;5037650;28;20024;-69
2023/09/09 05:31:17;;;;;;;396.35;99.85;;;;;;;16.45;100.00;101550.09;5062964;28;20021;-69
2023/09/09 05:33:42;;;;;;;434.40;100.82;;;;;;;16.48;100.00;101546.19;5039790;28;20028;-69
2023/09/09 05:36:08;;;;;;;514.47;101.18;;;;;;;16.47;100.00;101550.72;5030819;28;21062;-68
2023/09/09 05:38:35;;;;;;;479.48;101.68;;;;;;;16.50;100.00;101557.59;5038839;28;20071;-68
2023/09/09 05:41:00;;;;;;;373.25;100.22;;;;;;;16.49;100.00;101554.09;5035985;28;20160;-71
2023/09/09 05:43:25;;;;;;;385.50;99.13;;;;;;;16.48;100.00;101556.91;5041355;28;20096;-68
2023/09/09 05:45:50;;;;;;;387.05;105.43;;;;;;;16.51;100.00;101565.44;5026574;28;20105;-69
2023/09/09 05:48:16;;;;;;;425.67;104.18;;;;;;;16.50;100.00;101569.16;5032091;28;20547;-69
2023/09/09 05:50:41;;;;;;;323.80;100.20;;;;;;;16.47;100.00;101563.31;5035973;28;20030;-69
2023/09/09 05:53:07;;;;;;;312.63;102.38;;;;;;;16.49;100.00;101558.63;5033130;28;20421;-68
2023/09/09 05:55:32;;;;;;;409.33;99.40;;;;;;;16.43;100.00;101565.53;5028842;28;20429;-68
2023/09/09 05:57:57;;;;;;;310.45;99.00;;;;;;;16.43;100.00;101563.69;5027592;28;20025;-69
2023/09/09 06:00:23;;;;;;;284.70;96.45;;;;;;;16.41;100.00;101563.06;5028991;28;20027;-69
2023/09/09 06:02:48;;;;;;;388.17;94.82;;;;;;;16.37;100.00;101569.81;5038808;28;20398;-69
2023/09/09 06:05:15;;;;;;;357.35;91.57;;;;;;;16.32;100.00;101574.09;5028407;28;20103;-68
2023/09/09 06:07:41;;;;;;;249.55;91.28;;;;;;;16.32;100.00;101576.78;5042591;28;20025;-69
2023/09/09 06:10:07;;;;;;;273.63;92.57;;;;;;;16.33;100.00;101581.13;5048102;28;20482;-69
2023/09/09 06:12:33;;;;;;;285.73;88.70;;;;;;;16.27;100.00;101577.34;5032997;28;20025;-68
2023/09/09 06:14:58;;;;;;;244.65;94.03;;;;;;;16.31;100.00;101588.53;5038503;28;20032;-68
2023/09/09 06:17:23;;;;;;;189.93;87.72;;;;;;;16.29;100.00;101590.56;5029710;28;20028;-69
2023/09/09 06:19:49;;;;;;;291.02;90.20;;;;;;;16.25;100.00;101590.13;5038954;28;20033;-69
2023/09/09 06:22:14;;;;;;;205.10;92.85;;;;;;;16.34;100.00;101590.81;5040217;28;20070;-69
2023/09/09 06:24:39;;;;;;;218.18;92.22;;;;;;;16.33;100.00;101590.00;5028221;28;20025;-69
2023/09/09 06:27:05;;;;;;;248.38;94.07;;;;;;;16.34;100.00;101591.66;5040376;28;20017;-69
2023/09/09 06:29:30;;;;;;;311.45;95.32;;;;;;;16.33;100.00;101587.31;5028530;28;20112;-69
2023/09/09 06:31:55;;;;;;;200.32;96.57;;;;;;;16.41;100.00;101599.75;5048180;28;20398;-69
2023/09/09 06:34:20;;;;;;;266.25;92.07;;;;;;;16.35;100.00;101600.53;5033020;28;20025;-69
2023/09/09 06:36:46;;;;;;;222.77;93.43;;;;;;;16.36;100.00;101603.00;5028211;28;20033;-69
2023/09/09 06:39:11;;;;;;;230.85;98.40;;;;;;;16.42;100.00;101598.75;5041351;28;20156;-69
2023/09/09 06:41:36;;;;;;;207.32;99.55;;;;;;;16.49;100.00;101606.88;5034398;28;20033;-69
2023/09/09 06:44:03;;;;;;;217.15;102.63;;;;;;;16.58;100.00;101605.72;5033730;28;20520;-69
2023/09/09 06:46:28;;;;;;;242.70;101.53;;;;;;;16.59;100.00;101604.69;5038439;28;20025;-69
2023/09/09 06:48:53;;;;;;;306.10;101.97;;;;;;;16.64;100.00;101604.94;5028026;28;20017;-69
2023/09/09 06:51:18;;;;;;;245.80;105.72;;;;;;;16.76;100.00;101613.34;5037701;28;20013;-69
2023/09/09 06:53:44;;;;;;;272.27;107.10;;;;;;;16.80;100.00;101609.28;5032848;28;20099;-69
2023/09/09 06:56:10;;;;;;;315.85;104.53;;;;;;;16.86;100.00;101617.38;5035214;28;20029;-69
2023/09/09 06:58:35;;;;;;;309.55;107.25;;;;;;;16.92;100.00;101613.91;5031569;28;20099;-69
2023/09/09 07:01:02;;;;;;;299.83;107.80;;;;;;;16.97;100.00;101616.84;5033705;28;20021;-69
2023/09/09 07:03:28;;;;;;;292.67;107.30;;;;;;;17.07;100.00;101616.53;5032586;28;20017;-69
2023/09/09 07:05:53;;;;;;;233.23;108.82;;;;;;;17.17;100.00;101621.53;5036320;28;20055;-69
2023/09/09 07:08:19;;;;;;;271.10;107.80;;;;;;;17.20;100.00;101616.63;5038611;28;20434;-69
2023/09/09 07:10:53;;;;;;;324.92;106.78;;;;;;;17.25;100.00;101634.81;5042970;28;20486;-69
2023/09/09 07:13:21;;;;;;;254.23;108.45;;;;;;;17.35;100.00;101627.28;5036520;28;20033;-69
2023/09/09 07:15:46;;;;;;;218.63;109.35;;;;;;;17.46;100.00;101629.41;5047141;28;20397;-69
2023/09/09 07:18:11;;;;;;;310.48;102.47;;;;;;;17.50;100.00;101632.53;5037760;28;20111;-69
2023/09/09 07:20:38;;;;;;;374.33;101.05;;;;;;;17.48;100.00;101637.25;5033315;28;20430;-69
2023/09/09 07:23:03;;;;;;;210.15;97.72;;;;;;;17.54;100.00;101633.78;5036526;28;20022;-69
2023/09/09 07:25:28;;;;;;;222.40;104.43;;;;;;;17.69;100.00;101639.91;5046119;28;20021;-69
2023/09/09 07:27:53;;;;;;;336.80;102.72;;;;;;;17.71;100.00;101639.72;5035955;28;20371;-69
2023/09/09 07:30:19;;;;;;;196.30;101.75;;;;;;;17.83;100.00;101636.25;5031524;28;20013;-69
2023/09/09 07:32:44;;;;;;;219.50;102.20;;;;;;;17.91;100.00;101630.72;5030600;28;20042;-69
2023/09/09 07:35:09;;;;;;;268.63;99.95;;;;;;;17.91;100.00;101640.63;5039071;28;20017;-69
2023/09/09 07:37:35;;;;;;;226.85;100.03;;;;;;;17.93;100.00;101641.28;5049130;28;20520;-68
2023/09/09 07:40:00;;;;;;;191.82;98.68;;;;;;;17.97;100.00;101641.72;5048927;28;20167;-69
2023/09/09 07:42:25;;;;;;;211.93;98.70;;;;;;;17.96;100.00;101638.19;5038703;28;20020;-69
2023/09/09 07:44:51;;;;;;;188.20;98.43;;;;;;;17.99;100.00;101643.16;5041904;28;20677;-66
2023/09/09 07:47:17;;;;;;;215.85;100.50;;;;;;;18.01;100.00;101648.34;5036991;28;20024;-66
2023/09/09 07:49:43;;;;;;;220.95;97.88;;;;;;;18.02;100.00;101648.16;5042918;28;20099;-66
2023/09/09 07:52:08;;;;;;;255.43;95.05;;;;;;;18.08;100.00;101655.41;5035646;28;20140;-66
2023/09/09 07:54:33;;;;;;;153.93;98.32;;;;;;;18.19;100.00;101657.50;5030104;28;20092;-66
2023/09/09 07:56:59;;;;;;;193.63;97.20;;;;;;;18.21;100.00;101660.00;5029514;28;20098;-66
2023/09/09 07:59:25;;;;;;;172.80;100.72;;;;;;;18.27;100.00;101657.34;5036915;28;20021;-67
2023/09/09 08:01:50;;;;;;;154.32;100.28;;;;;;;18.31;100.00;101659.63;5049727;28;20056;-66
2023/09/09 08:04:15;;;;;;;174.27;99.00;;;;;;;18.37;100.00;101656.97;5044708;28;20123;-66
2023/09/09 08:06:41;;;;;;;155.73;99.25;;;;;;;18.46;100.00;101654.91;5031145;28;20037;-66
2023/09/09 08:09:06;;;;;;;141.30;99.97;;;;;;;18.55;100.00;101654.53;5029522;28;20121;-67
2023/09/09 08:11:31;;;;;;;145.05;95.45;;;;;;;18.59;100.00;101652.28;5030783;28;20033;-67
2023/09/09 08:13:56;;;;;;;137.82;97.75;;;;;;;18.66;100.00;101658.53;5029485;28;20376;-66
2023/09/09 08:16:22;;;;;;;132.00;95.75;;;;;;;18.80;100.00;101657.53;5030518;28;20505;-66
2023/09/09 08:18:47;;;;;;;126.28;94.50;;;;;;;18.93;100.00;101662.09;5036028;28;20029;-67
2023/09/09 08:21:13;;;;;;;122.55;93.78;;;;;;;19.03;100.00;101672.44;5038020;28;20179;-66
2023/09/09 08:23:39;;;;;;;125.97;93.65;;;;;;;19.14;100.00;101661.91;5042026;28;20025;-66
2023/09/09 08:26:04;;;;;;;127.70;92.93;;;;;;;19.27;100.00;101660.22;5030743;28;20353;-67
2023/09/09 08:28:29;;;;;;;124.03;91.35;;;;;;;19.38;100.00;101671.22;5034394;28;20833;-66
2023/09/09 08:31:00;;;;;;;119.15;90.07;;;;;;;19.41;100.00;101670.81;5037143;28;20029;-66
2023/09/09 08:33:26;;;;;;;119.85;90.68;;;;;;;19.53;100.00;101678.25;5038491;28;20603;-67
2023/09/09 08:35:57;;;;;;;122.65;90.88;;;;;;;19.54;100.00;101672.69;5030735;28;20029;-66
2023/09/09 08:38:22;;;;;;;117.25;87.53;;;;;;;19.64;100.00;101670.38;5041161;28;20025;-66
2023/09/09 08:41:10;;;;;;;113.80;85.63;;;;;;;19.75;100.00;101677.81;5030337;28;20028;-66
2023/09/09 08:43:53;;;;;;;108.83;85.23;;;;;;;19.78;100.00;101684.66;5036244;28;20218;-67
2023/09/09 08:46:21;;;;;;;109.40;83.57;;;;;;;19.75;100.00;101682.38;5035317;28;20272;-66
2023/09/09 08:48:49;;;;;;;114.97;86.43;;;;;;;19.73;100.00;101674.53;5028714;28;20055;-67
2023/09/09 08:51:17;;;;;;;110.03;84.97;;;;;;;19.78;100.00;101684.66;5030911;28;20056;-66
2023/09/09 08:53:46;;;;;;;108.88;82.80;;;;;;;19.87;100.00;101682.56;5044705;28;20039;-66
2023/09/09 08:56:12;;;;;;;;;;;;;;;20.01;100.00;101698.50;5043083;28;20821;-66
2023/09/09 08:58:40;;;;;;;100.93;77.90;;;;;;;19.95;100.00;101687.72;5047459;28;20440;-66
2023/09/09 09:01:06;;;;;;;100.28;78.35;;;;;;;20.07;100.00;101692.25;5044991;28;20028;-66
2023/09/09 09:03:32;;;;;;;99.63;79.38;;;;;;;20.10;100.00;101689.13;5034747;28;20040;-66
2023/09/09 09:06:00;;;;;;;96.88;76.75;;;;;;;20.16;100.00;101692.84;5037389;28;20393;-65
2023/09/09 09:08:25;;;;;;;97.68;77.22;;;;;;;20.35;100.00;101685.72;5041992;28;20013;-66
2023/09/09 09:10:50;;;;;;;98.10;76.70;;;;;;;20.50;100.00;101690.84;5038669;28;20028;-65
2023/09/09 09:13:16;;;;;;;95.10;76.45;;;;;;;20.61;100.00;101692.91;5036624;28;20028;-65
2023/09/09 09:15:42;;;;;;;98.13;76.97;;;;;;;20.72;100.00;101694.91;5043937;28;20501;-66
2023/09/09 09:18:10;;;;;;;96.00;75.72;;;;;;;20.98;100.00;101702.81;5048028;28;20032;-66
2023/09/09 09:20:36;;;;;;;97.60;76.28;;;;;;;21.10;100.00;101700.25;5044350;28;20424;-66
2023/09/09 09:23:04;;;;;;;94.00;76.07;;;;;;;21.20;100.00;101702.47;5039671;28;20545;-65
2023/09/09 09:25:36;;;;;;;95.82;76.43;;;;;;;21.41;99.97;101695.91;5045484;28;20028;-65
2023/09/09 09:28:03;;;;;;;94.70;76.63;;;;;;;21.45;99.63;101699.81;5042704;28;20021;-66
2023/09/09 09:30:29;;;;;;;96.00;76.03;;;;;;;21.76;99.43;101705.13;5043039;28;20021;-66
2023/09/09 09:32:56;;;;;;;93.90;75.63;;;;;;;21.98;98.65;101702.00;5031753;28;20040;-66
2023/09/09 09:35:32;;;;;;;90.72;71.43;;;;;;;22.12;97.71;101701.63;5038085;28;20024;-66
2023/09/09 09:37:58;;;;;;;83.53;67.22;;;;;;;22.39;97.27;101707.56;5040007;28;20425;-66
2023/09/09 09:40:24;;;;;;;82.35;64.75;;;;;;;22.58;95.99;101700.22;5034795;28;20559;-66
2023/09/09 09:42:50;;;;;;;82.55;63.70;;;;;;;22.77;94.99;101690.97;5036912;28;20021;-66
2023/09/09 09:45:16;;;;;;;72.47;59.38;;;;;;;22.97;93.56;101693.44;5042389;28;20025;-66
2023/09/09 09:47:46;;;;;;;68.93;52.05;;;;;;;23.02;91.58;101692.75;5038254;28;20021;-65
2023/09/09 09:50:30;;;;;;;64.82;53.10;;;;;;;23.33;90.00;101697.03;5041614;28;20029;-65
2023/09/09 09:53:06;;;;;;;68.28;52.78;;;;;;;23.43;88.67;101697.28;5043118;28;20509;-65
2023/09/09 09:55:34;;;;;;;62.95;50.92;;;;;;;23.42;87.96;101698.34;5036389;28;20040;-65
2023/09/09 09:58:04;;;;;;;60.17;50.25;;;;;;;23.67;86.54;101698.94;5042949;28;20017;-65
2023/09/09 10:00:30;;;;;;;55.60;46.47;;;;;;;23.73;85.67;101706.16;5037387;28;20044;-65
2023/09/09 10:02:57;;;;;;;52.60;42.95;;;;;;;23.86;84.16;101706.97;5041194;28;20382;-65
2023/09/09 10:05:29;;;;;;;50.03;41.13;;;;;;;24.17;84.19;101701.13;5040395;28;20025;-65
2023/09/09 10:08:16;;;;;;;57.22;44.00;;;;;;;24.24;83.20;101701.81;5040651;28;20521;-65
2023/09/09 10:10:48;;;;;;;53.15;44.95;;;;;;;24.40;81.77;101697.56;5045243;28;20037;-65
2023/09/09 10:13:22;;;;;;;55.70;43.38;;;;;;;24.53;80.79;101691.81;5047840;28;20028;-65
2023/09/09 10:15:49;;;;;;;49.55;41.22;;;;;;;24.65;79.47;101691.78;5039074;28;20056;-65
2023/09/09 10:18:16;;;;;;;49.13;40.70;;;;;;;24.81;78.59;101692.88;5033914;28;20021;-65
2023/09/09 10:20:41;;;;;;;45.50;36.10;;;;;;;24.98;77.73;101696.44;5033545;28;20035;-66
2023/09/09 10:23:07;;;;;;;44.60;36.38;;;;;;;25.27;77.58;101691.81;5046140;28;20497;-66
2023/09/09 10:25:34;;;;;;;44.47;36.08;;;;;;;25.15;76.13;101694.59;5031243;28;20033;-65
2023/09/09 10:27:59;;;;;;;44.50;36.17;;;;;;;25.32;75.15;101692.69;5045556;28;20616;-66
2023/09/09 10:30:28;;;;;;;41.58;35.22;;;;;;;25.55;75.32;101686.25;5047661;28;20055;-65
2023/09/09 10:32:59;;;;;;;43.72;35.20;;;;;;;25.73;74.47;101692.50;5040499;28;20064;-66
2023/09/09 10:35:24;;;;;;;40.40;34.22;;;;;;;25.68;73.13;101687.00;5039242;28;20017;-65
2023/09/09 10:37:50;;;;;;;38.50;32.58;;;;;;;25.89;70.92;101687.03;5049529;28;20096;-65
2023/09/09 10:40:17;;;;;;;38.97;31.10;;;;;;;26.05;69.11;101687.25;5042275;28;20419;-66
2023/09/09 10:42:44;;;;;;;45.88;34.65;;;;;;;26.19;67.69;101691.22;5049926;28;20028;-66
2023/09/09 10:45:25;;;;;;;41.85;34.13;;;;;;;26.24;68.38;101694.00;5039984;28;20455;-65
2023/09/09 10:47:55;;;;;;;38.67;31.65;;;;;;;26.40;68.88;101690.41;5049448;28;20021;-67
2023/09/09 10:50:21;;;;;;;34.40;28.58;;;;;;;26.45;65.75;101686.91;5037280;28;20397;-65
2023/09/09 10:52:46;;;;;;;35.83;29.63;;;;;;;26.51;66.21;101683.16;5046362;28;20017;-66
2023/09/09 10:55:14;;;;;;;35.35;26.42;;;;;;;26.73;66.12;101683.94;5048540;28;20029;-66
2023/09/09 10:57:40;;;;;;;31.15;25.02;;;;;;;26.87;65.26;101681.59;5043609;28;20068;-66